Time,TemperatureF,DewpointF,PressureIn,WindDirection,WindDirectionDegrees,WindSpeedMPH,WindSpeedGustMPH,Humidity,HourlyPrecipIn,Conditions,Clouds,dailyrainin,SolarRadiationWatts/m^2,SoftwareType,DateUTC
2013-10-06 00:44:00,67.0,65.0,-100.00,West,260,0.0,0.0,94,0.00,,,0.00,0.000000,,2013-10-06 04:44:00,
2013-10-06 00:54:00,67.0,65.0,-100.00,West,260,0.0,0.0,94,0.00,,,0.00,0.000000,,2013-10-06 04:54:00,
2013-10-06 01:03:00,67.0,65.0,-100.00,West,260,0.0,0.0,94,0.00,,,0.00,0.000000,,2013-10-06 05:03:00,
2013-10-06 01:43:00,66.0,65.0,-100.00,SW,234,0.0,0.0,96,0.00,,,0.00,0.000000,,2013-10-06 05:43:00,
2013-10-06 01:52:00,66.0,65.0,-100.00,SW,234,0.0,0.0,96,0.00,,,0.00,0.000000,,2013-10-06 05:52:00,
2013-10-06 02:02:00,66.0,65.0,-100.00,SW,234,0.0,0.0,96,0.00,,,0.00,0.000000,,2013-10-06 06:02:00,
2013-10-06 02:42:00,65.0,64.0,-100.00,WSW,250,0.0,0.0,97,0.00,,,0.00,0.000000,,2013-10-06 06:42:00,
2013-10-06 02:52:00,65.0,64.0,-100.00,WSW,250,0.0,0.0,97,0.00,,,0.00,0.000000,,2013-10-06 06:52:00,
2013-10-06 03:02:00,65.0,64.0,-100.00,WSW,250,0.0,0.0,97,0.00,,,0.00,0.000000,,2013-10-06 07:02:00,
2013-10-06 03:43:00,64.0,63.0,-100.00,WSW,237,0.0,0.0,98,0.00,,,0.00,0.000000,,2013-10-06 07:43:00,
2013-10-06 03:52:00,64.0,63.0,-100.00,WSW,237,0.0,0.0,98,0.00,,,0.00,0.000000,,2013-10-06 07:52:00,
2013-10-06 04:03:00,64.0,63.0,-100.00,WSW,237,0.0,0.0,98,0.00,,,0.00,0.000000,,2013-10-06 08:03:00,
2013-10-06 04:42:00,63.0,63.0,-100.00,SW,224,0.0,0.0,99,0.00,,,0.00,0.000000,,2013-10-06 08:42:00,
2013-10-06 04:53:00,63.0,63.0,-100.00,SW,224,0.0,0.0,99,0.00,,,0.00,0.000000,,2013-10-06 08:53:00,
2013-10-06 05:01:00,63.0,63.0,-100.00,SW,224,0.0,0.0,99,0.00,,,0.00,0.000000,,2013-10-06 09:01:00,
2013-10-06 05:43:00,62.0,62.0,-100.00,South,186,0.0,0.0,99,0.00,,,0.00,0.000000,,2013-10-06 09:43:00,
2013-10-06 05:53:00,62.0,62.0,-100.00,South,186,0.0,0.0,99,0.00,,,0.00,0.000000,,2013-10-06 09:53:00,
2013-10-06 06:03:00,62.0,62.0,-100.00,South,186,0.0,0.0,99,0.00,,,0.00,0.000000,,2013-10-06 10:03:00,
2013-10-06 06:43:00,61.0,61.0,-100.00,SSW,211,0.0,0.0,99,0.00,,,0.00,0.000000,,2013-10-06 10:43:00,
2013-10-06 06:53:00,61.0,61.0,-100.00,SSW,211,0.0,0.0,99,0.00,,,0.00,0.000000,,2013-10-06 10:53:00,
2013-10-06 07:03:00,61.0,61.0,-100.00,SSW,211,0.0,0.0,99,0.00,,,0.00,0.000000,,2013-10-06 11:03:00,
2013-10-06 07:42:00,60.0,60.0,-100.00,SW,215,0.0,0.0,99,0.00,,,0.00,0.000000,,2013-10-06 11:42:00,
2013-10-06 07:52:00,60.0,60.0,-100.00,SW,215,0.0,0.0,99,0.00,,,0.00,0.000000,,2013-10-06 11:52:00,
2013-10-06 08:02:00,60.0,60.0,-100.00,SW,215,0.0,0.0,99,0.00,,,0.00,0.000000,,2013-10-06 12:02:00,
2013-10-06 08:42:00,60.0,60.0,-100.00,WSW,249,0.0,0.0,99,0.00,,,0.00,7.000000,,2013-10-06 12:42:00,
2013-10-06 08:52:00,60.0,60.0,-100.00,WSW,249,0.0,0.0,99,0.00,,,0.00,7.000000,,2013-10-06 12:52:00,
2013-10-06 09:02:00,60.0,60.0,-100.00,WSW,249,0.0,0.0,99,0.00,,,0.00,7.000000,,2013-10-06 13:02:00,
2013-10-06 09:42:00,66.0,65.0,-100.00,East,99,0.0,0.0,95,0.00,,,0.00,100.000000,,2013-10-06 13:42:00,
2013-10-06 09:52:00,66.0,65.0,-100.00,East,99,0.0,0.0,95,0.00,,,0.00,100.000000,,2013-10-06 13:52:00,
2013-10-06 10:02:00,66.0,65.0,-100.00,East,99,0.0,0.0,95,0.00,,,0.00,100.000000,,2013-10-06 14:02:00,
2013-10-06 10:42:00,73.0,65.0,-100.00,ENE,59,0.0,0.0,77,0.00,,,0.00,311.000000,,2013-10-06 14:42:00,
2013-10-06 10:52:00,73.0,65.0,-100.00,ENE,59,0.0,0.0,77,0.00,,,0.00,311.000000,,2013-10-06 14:52:00,
2013-10-06 11:02:00,73.0,65.0,-100.00,ENE,59,0.0,0.0,77,0.00,,,0.00,311.000000,,2013-10-06 15:02:00,
2013-10-06 11:44:00,78.0,64.0,-100.00,SSE,154,0.0,0.0,62,0.00,,,0.00,471.000000,,2013-10-06 15:44:00,
2013-10-06 11:54:00,78.0,64.0,-100.00,SSE,154,0.0,0.0,62,0.00,,,0.00,471.000000,,2013-10-06 15:54:00,
2013-10-06 12:03:00,78.0,64.0,-100.00,SSE,154,0.0,0.0,62,0.00,,,0.00,471.000000,,2013-10-06 16:03:00,
2013-10-06 12:43:00,80.0,65.0,-100.00,NE,49,0.0,0.0,61,0.00,,,0.00,589.000000,,2013-10-06 16:43:00,
2013-10-06 12:53:00,80.0,65.0,-100.00,NE,49,0.0,0.0,61,0.00,,,0.00,589.000000,,2013-10-06 16:53:00,
2013-10-06 13:02:00,80.0,65.0,-100.00,NE,49,0.0,0.0,61,0.00,,,0.00,589.000000,,2013-10-06 17:02:00,
2013-10-06 13:42:00,80.0,64.0,-100.00,NNE,13,0.0,0.0,59,0.00,,,0.00,484.000000,,2013-10-06 17:42:00,
2013-10-06 13:53:00,80.0,64.0,-100.00,NNE,13,0.0,0.0,59,0.00,,,0.00,484.000000,,2013-10-06 17:53:00,
2013-10-06 14:02:00,80.0,64.0,-100.00,NNE,13,0.0,0.0,59,0.00,,,0.00,484.000000,,2013-10-06 18:02:00,
2013-10-06 14:43:00,82.0,64.0,-100.00,North,359,0.0,0.0,54,0.00,,,0.00,535.000000,,2013-10-06 18:43:00,
2013-10-06 14:52:00,82.0,64.0,-100.00,North,359,0.0,0.0,54,0.00,,,0.00,535.000000,,2013-10-06 18:52:00,
2013-10-06 15:01:00,82.0,64.0,-100.00,North,359,0.0,0.0,54,0.00,,,0.00,535.000000,,2013-10-06 19:01:00,
2013-10-06 15:42:00,83.0,58.0,-100.00,WSW,251,0.0,0.0,43,0.00,,,0.00,565.000000,,2013-10-06 19:42:00,
2013-10-06 15:53:00,83.0,58.0,-100.00,WSW,251,0.0,0.0,43,0.00,,,0.00,565.000000,,2013-10-06 19:53:00,
2013-10-06 16:02:00,83.0,58.0,-100.00,WSW,251,0.0,0.0,43,0.00,,,0.00,565.000000,,2013-10-06 20:02:00,
2013-10-06 16:42:00,85.0,58.0,-100.00,SSW,202,0.0,0.0,40,0.00,,,0.00,505.000000,,2013-10-06 20:42:00,
2013-10-06 16:53:00,85.0,58.0,-100.00,SSW,202,0.0,0.0,40,0.00,,,0.00,505.000000,,2013-10-06 20:53:00,
2013-10-06 17:01:00,85.0,58.0,-100.00,SSW,202,0.0,0.0,40,0.00,,,0.00,505.000000,,2013-10-06 21:01:00,
2013-10-06 17:44:00,83.0,57.0,-100.00,SSW,192,0.0,0.0,41,0.00,,,0.00,313.000000,,2013-10-06 21:44:00,
2013-10-06 17:55:00,83.0,57.0,-100.00,SSW,192,0.0,0.0,41,0.00,,,0.00,313.000000,,2013-10-06 21:55:00,
2013-10-06 18:04:00,83.0,57.0,-100.00,SSW,192,0.0,0.0,41,0.00,,,0.00,313.000000,,2013-10-06 22:04:00,
2013-10-06 18:43:00,81.0,59.0,-100.00,SSE,155,0.0,0.0,47,0.00,,,0.00,92.000000,,2013-10-06 22:43:00,
2013-10-06 18:54:00,81.0,59.0,-100.00,SSE,155,0.0,0.0,47,0.00,,,0.00,92.000000,,2013-10-06 22:54:00,
2013-10-06 19:03:00,81.0,59.0,-100.00,SSE,155,0.0,0.0,47,0.00,,,0.00,92.000000,,2013-10-06 23:03:00,
2013-10-06 19:42:00,78.0,58.0,-100.00,SW,218,0.0,0.0,50,0.00,,,0.00,27.000000,,2013-10-06 23:42:00,
2013-10-06 19:53:00,78.0,58.0,-100.00,SW,218,0.0,0.0,50,0.00,,,0.00,27.000000,,2013-10-06 23:53:00,
2013-10-06 20:02:00,78.0,58.0,-100.00,SW,218,0.0,0.0,50,0.00,,,0.00,27.000000,,2013-10-07 00:02:00,
2013-10-06 20:42:00,74.0,59.0,-100.00,SW,236,0.0,0.0,59,0.00,,,0.00,0.000000,,2013-10-07 00:42:00,
2013-10-06 20:52:00,74.0,59.0,-100.00,SW,236,0.0,0.0,59,0.00,,,0.00,0.000000,,2013-10-07 00:52:00,
2013-10-06 21:02:00,74.0,59.0,-100.00,SW,236,0.0,0.0,59,0.00,,,0.00,0.000000,,2013-10-07 01:02:00,
2013-10-06 21:42:00,72.0,60.0,-100.00,SW,233,0.0,0.0,65,0.00,,,0.00,0.000000,,2013-10-07 01:42:00,
2013-10-06 21:53:00,72.0,60.0,-100.00,SW,233,0.0,0.0,65,0.00,,,0.00,0.000000,,2013-10-07 01:53:00,
2013-10-06 22:02:00,72.0,60.0,-100.00,SW,233,0.0,0.0,65,0.00,,,0.00,0.000000,,2013-10-07 02:02:00,
2013-10-06 22:42:00,73.0,61.0,-100.00,SW,231,0.0,0.0,65,0.00,,,0.00,0.000000,,2013-10-07 02:42:00,
2013-10-06 22:53:00,73.0,61.0,-100.00,SW,231,0.0,0.0,65,0.00,,,0.00,0.000000,,2013-10-07 02:53:00,
2013-10-06 23:02:00,73.0,61.0,-100.00,SW,231,0.0,0.0,65,0.00,,,0.00,0.000000,,2013-10-07 03:02:00,
2013-10-06 23:44:00,69.0,63.0,-100.00,SW,228,0.0,0.0,82,0.00,,,0.00,0.000000,,2013-10-07 03:44:00,
2013-10-06 23:54:00,69.0,63.0,-100.00,SW,228,0.0,0.0,82,0.00,,,0.00,0.000000,,2013-10-07 03:54:00,